Dirección General De Aeronáutica Civil

Dirección Meteorológica de Chile - Servicios Climáticos

Informe General de Control de Calidad de la Estación

Listado de niveles de control de calidad para algunos parámetros
Estación Paillaco (400049)
Fecha de Revisión de los datos :

Elementos

Registros Niveles de Control Total
Nivel 0 Nivel 1 Nivel 2 Nivel 3 Errores Porcentaje
01 Temperatura del Aire Seco 124.460 0 . 621 0.50 % 0 . 0 . 621 0.50 %
02 Temperatura de Rocío 124.427 0 . 0 . 0 . 0 . 0 0.00 %
03 Humedad Relativa del Aire 124.488 0 . 0 . 0 . 0 . 0 0.00 %
04 Temperatura Máxima PM 1.082 0 . 0 . 0 . 0 . 0 0.00 %
05 Temperatura Mínima AM 1.058 0 . 0 . 0 . 0 . 0 0.00 %
06 Agua Caida, Acumulada 6 Horas 21.885 0 . 0 . 0 . 0 . 0 0.00 %
07 Presión Atm. a Nivel de Estación (QFE) 123.942 0 . 0 . 0 . 0 . 0 0.00 %
08 Presión Atm. a Nivel Medio del Mar (QFF) 25.007 0 . 0 . 0 . 0 . 0 0.00 %
09 Presión Atm. Estándar OACI (QNH) 25.007 0 . 0 . 0 . 0 . 0 0.00 %

Totales

571.356 . 0.0000 % . 0.1087 % . 0.0000 % . 0.0000 % 621 0.1087 %

Detalle de Errores Encontrados

Nivel Fecha del Dato Descripción Información Error Fecha Ingreso
1 2017-02-18 07:00:00 Ts debe ser mayor o igual a Td Ts=9.4 - Td=9.5 2023-11-20 19:21:00
1 2017-02-18 13:00:00 Ts debe ser mayor o igual a Td Ts=12.5 - Td=12.6 2023-11-20 19:21:00
1 2017-02-22 06:00:00 Ts debe ser mayor o igual a Td Ts=16.3 - Td=16.4 2023-11-20 19:21:00
1 2017-02-22 10:00:00 Ts debe ser mayor o igual a Td Ts=16.0 - Td=16.1 2023-11-20 19:21:00
1 2017-02-22 11:00:00 Ts debe ser mayor o igual a Td Ts=16.2 - Td=16.3 2023-11-20 19:21:00
1 2017-02-27 09:00:00 Ts debe ser mayor o igual a Td Ts=12.5 - Td=12.6 2023-11-20 19:21:00
1 2017-02-27 10:00:00 Ts debe ser mayor o igual a Td Ts=13.0 - Td=13.1 2023-11-20 19:21:00
1 2017-03-01 09:00:00 Ts debe ser mayor o igual a Td Ts=9.2 - Td=9.3 2023-11-20 19:21:00
1 2017-03-10 06:00:00 Ts debe ser mayor o igual a Td Ts=7.8 - Td=7.9 2023-11-20 19:21:00
1 2017-03-10 11:00:00 Ts debe ser mayor o igual a Td Ts=8.6 - Td=8.7 2023-11-20 19:21:00
1 2017-03-12 04:00:00 Ts debe ser mayor o igual a Td Ts=7.2 - Td=7.3 2023-11-20 19:21:00
1 2017-03-12 13:00:00 Ts debe ser mayor o igual a Td Ts=8.3 - Td=8.4 2023-11-20 19:21:00
1 2017-03-13 11:00:00 Ts debe ser mayor o igual a Td Ts=4.8 - Td=4.9 2023-11-20 19:21:00
1 2017-03-18 09:00:00 Ts debe ser mayor o igual a Td Ts=4.8 - Td=4.9 2023-11-20 19:21:00
1 2017-03-18 14:00:00 Ts debe ser mayor o igual a Td Ts=11.4 - Td=11.5 2023-11-20 19:21:00
1 2017-03-24 10:00:00 Ts debe ser mayor o igual a Td Ts=7.1 - Td=7.2 2023-11-20 19:21:00
1 2017-03-27 11:00:00 Ts debe ser mayor o igual a Td Ts=7.7 - Td=7.8 2023-11-20 19:22:00
1 2017-03-28 09:00:00 Ts debe ser mayor o igual a Td Ts=5.6 - Td=5.7 2023-11-20 19:22:00
1 2017-03-28 12:00:00 Ts debe ser mayor o igual a Td Ts=7.1 - Td=7.2 2023-11-20 19:22:00
1 2017-03-28 13:00:00 Ts debe ser mayor o igual a Td Ts=10.4 - Td=10.5 2023-11-20 19:22:00
1 2017-03-29 08:00:00 Ts debe ser mayor o igual a Td Ts=8.4 - Td=8.5 2023-11-20 19:22:00
1 2017-03-29 09:00:00 Ts debe ser mayor o igual a Td Ts=8.5 - Td=8.6 2023-11-20 19:22:00
1 2017-03-29 11:00:00 Ts debe ser mayor o igual a Td Ts=8.2 - Td=8.3 2023-11-20 19:22:00
1 2017-03-31 03:00:00 Ts debe ser mayor o igual a Td Ts=7.7 - Td=7.8 2023-11-20 19:22:00
1 2017-03-31 04:00:00 Ts debe ser mayor o igual a Td Ts=7.7 - Td=7.8 2023-11-20 19:22:00
1 2017-04-01 04:00:00 Ts debe ser mayor o igual a Td Ts=7.2 - Td=7.3 2023-11-20 19:22:00
1 2017-04-01 08:00:00 Ts debe ser mayor o igual a Td Ts=7.6 - Td=7.7 2023-11-20 19:22:00
1 2017-04-01 09:00:00 Ts debe ser mayor o igual a Td Ts=7.0 - Td=7.1 2023-11-20 19:22:00
1 2017-04-01 11:00:00 Ts debe ser mayor o igual a Td Ts=7.8 - Td=7.9 2023-11-20 19:22:00
1 2017-04-01 13:00:00 Ts debe ser mayor o igual a Td Ts=8.8 - Td=8.9 2023-11-20 19:22:00
1 2017-04-05 06:00:00 Ts debe ser mayor o igual a Td Ts=9.4 - Td=9.5 2023-11-20 19:22:00
1 2017-04-07 01:00:00 Ts debe ser mayor o igual a Td Ts=9.0 - Td=9.1 2023-11-20 19:22:00
1 2017-04-07 08:00:00 Ts debe ser mayor o igual a Td Ts=7.3 - Td=7.4 2023-11-20 19:22:00
1 2017-04-08 02:00:00 Ts debe ser mayor o igual a Td Ts=6.9 - Td=7.0 2023-11-20 19:22:00
1 2017-04-09 14:00:00 Ts debe ser mayor o igual a Td Ts=11.6 - Td=11.7 2023-11-20 19:22:00
1 2017-04-10 13:00:00 Ts debe ser mayor o igual a Td Ts=8.5 - Td=8.6 2023-11-20 19:22:00
1 2017-04-12 13:00:00 Ts debe ser mayor o igual a Td Ts=4.8 - Td=4.9 2023-11-20 19:22:00
1 2017-04-14 11:00:00 Ts debe ser mayor o igual a Td Ts=6.9 - Td=7.0 2023-11-20 19:22:00
1 2017-04-14 13:00:00 Ts debe ser mayor o igual a Td Ts=10.3 - Td=10.4 2023-11-20 19:22:00
1 2017-04-15 04:00:00 Ts debe ser mayor o igual a Td Ts=10.3 - Td=10.4 2023-11-20 19:22:00
1 2017-04-15 11:00:00 Ts debe ser mayor o igual a Td Ts=10.7 - Td=10.8 2023-11-20 19:22:00
1 2017-04-15 14:00:00 Ts debe ser mayor o igual a Td Ts=14.7 - Td=14.8 2023-11-20 19:22:00
1 2017-04-18 13:00:00 Ts debe ser mayor o igual a Td Ts=9.2 - Td=9.3 2023-11-20 19:22:00
1 2017-04-21 01:00:00 Ts debe ser mayor o igual a Td Ts=9.4 - Td=9.5 2023-11-20 19:22:00
1 2017-04-21 10:00:00 Ts debe ser mayor o igual a Td Ts=8.5 - Td=8.6 2023-11-20 19:22:00
1 2017-04-23 13:00:00 Ts debe ser mayor o igual a Td Ts=7.7 - Td=7.8 2023-11-20 19:22:00
1 2017-04-29 06:00:00 Ts debe ser mayor o igual a Td Ts=10.5 - Td=10.6 2023-11-20 19:22:00
1 2017-04-29 07:00:00 Ts debe ser mayor o igual a Td Ts=10.5 - Td=10.6 2023-11-20 19:22:00
1 2017-05-03 14:00:00 Ts debe ser mayor o igual a Td Ts=8.5 - Td=8.6 2023-11-20 19:22:00
1 2017-05-06 13:00:00 Ts debe ser mayor o igual a Td Ts=12.9 - Td=13.0 2023-11-20 19:22:00
1 2017-05-06 17:00:00 Ts debe ser mayor o igual a Td Ts=13.1 - Td=13.2 2023-11-20 19:22:00
1 2017-05-06 23:00:00 Ts debe ser mayor o igual a Td Ts=11.5 - Td=11.6 2023-11-20 19:22:00
1 2017-05-07 09:00:00 Ts debe ser mayor o igual a Td Ts=10.3 - Td=10.4 2023-11-20 19:22:00
1 2017-05-08 02:00:00 Ts debe ser mayor o igual a Td Ts=7.4 - Td=7.5 2023-11-20 19:22:00
1 2017-05-08 05:00:00 Ts debe ser mayor o igual a Td Ts=7.0 - Td=7.1 2023-11-20 19:22:00
1 2017-05-08 07:00:00 Ts debe ser mayor o igual a Td Ts=7.2 - Td=7.3 2023-11-20 19:22:00
1 2017-05-08 15:00:00 Ts debe ser mayor o igual a Td Ts=11.4 - Td=11.5 2023-11-20 19:22:00
1 2017-05-09 14:00:00 Ts debe ser mayor o igual a Td Ts=8.6 - Td=8.7 2023-11-20 19:22:00
1 2017-05-10 14:00:00 Ts debe ser mayor o igual a Td Ts=7.0 - Td=7.1 2023-11-20 19:22:00
1 2017-05-10 15:00:00 Ts debe ser mayor o igual a Td Ts=8.8 - Td=8.9 2023-11-20 19:22:00
1 2017-05-11 04:00:00 Ts debe ser mayor o igual a Td Ts=9.2 - Td=9.3 2023-11-20 19:22:00
1 2017-05-11 09:00:00 Ts debe ser mayor o igual a Td Ts=7.7 - Td=7.8 2023-11-20 19:22:00
1 2017-05-12 00:00:00 Ts debe ser mayor o igual a Td Ts=11.6 - Td=11.7 2023-11-20 19:22:00
1 2017-05-12 05:00:00 Ts debe ser mayor o igual a Td Ts=10.7 - Td=10.8 2023-11-20 19:22:00
1 2017-05-14 12:00:00 Ts debe ser mayor o igual a Td Ts=7.1 - Td=7.2 2023-11-20 19:22:00
1 2017-05-17 13:00:00 Ts debe ser mayor o igual a Td Ts=7.4 - Td=7.5 2023-11-20 19:22:00
1 2017-05-19 04:00:00 Ts debe ser mayor o igual a Td Ts=4.8 - Td=4.9 2023-11-20 19:22:00
1 2017-05-21 11:00:00 Ts debe ser mayor o igual a Td Ts=8.6 - Td=8.7 2023-11-20 19:22:00
1 2017-05-21 12:00:00 Ts debe ser mayor o igual a Td Ts=8.5 - Td=8.6 2023-11-20 19:22:00
1 2017-05-26 16:00:00 Ts debe ser mayor o igual a Td Ts=7.7 - Td=7.8 2023-11-20 19:22:00
1 2017-05-31 12:00:00 Ts debe ser mayor o igual a Td Ts=8.7 - Td=8.8 2023-11-20 19:22:00
1 2017-06-01 00:00:00 Ts debe ser mayor o igual a Td Ts=10.3 - Td=10.4 2023-11-20 19:23:00
1 2017-06-01 04:00:00 Ts debe ser mayor o igual a Td Ts=9.4 - Td=9.5 2023-11-20 19:23:00
1 2017-06-02 16:00:00 Ts debe ser mayor o igual a Td Ts=7.3 - Td=7.4 2023-11-20 19:23:00
1 2017-06-02 17:00:00 Ts debe ser mayor o igual a Td Ts=8.8 - Td=8.9 2023-11-20 19:23:00
1 2017-06-03 00:00:00 Ts debe ser mayor o igual a Td Ts=7.4 - Td=7.5 2023-11-20 19:23:00
1 2017-06-06 07:00:00 Ts debe ser mayor o igual a Td Ts=7.0 - Td=7.1 2023-11-20 19:23:00
1 2017-06-06 11:00:00 Ts debe ser mayor o igual a Td Ts=7.3 - Td=7.4 2023-11-20 19:23:00
1 2017-06-08 21:00:00 Ts debe ser mayor o igual a Td Ts=7.2 - Td=7.3 2023-11-20 19:23:00
1 2017-06-08 22:00:00 Ts debe ser mayor o igual a Td Ts=7.2 - Td=7.3 2023-11-20 19:23:00
1 2017-06-08 23:00:00 Ts debe ser mayor o igual a Td Ts=7.3 - Td=7.4 2023-11-20 19:23:00
1 2017-06-09 08:00:00 Ts debe ser mayor o igual a Td Ts=7.8 - Td=7.9 2023-11-20 19:23:00
1 2017-06-09 09:00:00 Ts debe ser mayor o igual a Td Ts=7.8 - Td=7.9 2023-11-20 19:23:00
1 2017-06-10 11:00:00 Ts debe ser mayor o igual a Td Ts=7.3 - Td=7.4 2023-11-20 19:23:00
1 2017-06-12 16:00:00 Ts debe ser mayor o igual a Td Ts=6.9 - Td=7.0 2023-11-20 19:23:00
1 2017-06-13 07:00:00 Ts debe ser mayor o igual a Td Ts=7.4 - Td=7.5 2023-11-20 19:23:00
1 2017-06-13 12:00:00 Ts debe ser mayor o igual a Td Ts=7.2 - Td=7.3 2023-11-20 19:23:00
1 2017-06-20 21:00:00 Ts debe ser mayor o igual a Td Ts=5.6 - Td=5.7 2023-11-20 19:23:00
1 2017-06-21 04:00:00 Ts debe ser mayor o igual a Td Ts=7.2 - Td=7.3 2023-11-20 19:23:00
1 2017-06-21 08:00:00 Ts debe ser mayor o igual a Td Ts=8.5 - Td=8.6 2023-11-20 19:23:00
1 2017-06-26 10:00:00 Ts debe ser mayor o igual a Td Ts=7.8 - Td=7.9 2023-11-20 19:23:00
1 2017-06-26 13:00:00 Ts debe ser mayor o igual a Td Ts=8.1 - Td=8.2 2023-11-20 19:23:00
1 2017-06-26 15:00:00 Ts debe ser mayor o igual a Td Ts=8.6 - Td=8.7 2023-11-20 19:23:00
1 2017-06-27 07:00:00 Ts debe ser mayor o igual a Td Ts=7.8 - Td=7.9 2023-11-20 19:23:00
1 2017-06-27 14:00:00 Ts debe ser mayor o igual a Td Ts=8.7 - Td=8.8 2023-11-20 19:23:00
1 2017-06-27 23:00:00 Ts debe ser mayor o igual a Td Ts=10.7 - Td=10.8 2023-11-20 19:23:00
1 2017-06-28 11:00:00 Ts debe ser mayor o igual a Td Ts=8.6 - Td=8.7 2023-11-20 19:23:00
1 2017-06-28 12:00:00 Ts debe ser mayor o igual a Td Ts=8.2 - Td=8.3 2023-11-20 19:23:00
1 2017-06-28 13:00:00 Ts debe ser mayor o igual a Td Ts=8.5 - Td=8.6 2023-11-20 19:23:00
1 2017-06-29 05:00:00 Ts debe ser mayor o igual a Td Ts=8.8 - Td=8.9 2023-11-20 19:23:00
1 2017-06-29 12:00:00 Ts debe ser mayor o igual a Td Ts=7.1 - Td=7.2 2023-11-20 19:23:00
1 2017-06-29 14:00:00 Ts debe ser mayor o igual a Td Ts=8.4 - Td=8.5 2023-11-20 19:23:00
1 2017-06-30 01:00:00 Ts debe ser mayor o igual a Td Ts=7.5 - Td=7.6 2023-11-20 19:23:00
1 2017-06-30 02:00:00 Ts debe ser mayor o igual a Td Ts=7.2 - Td=7.3 2023-11-20 19:23:00
1 2017-06-30 05:00:00 Ts debe ser mayor o igual a Td Ts=5.6 - Td=5.7 2023-11-20 19:23:00
1 2017-06-30 12:00:00 Ts debe ser mayor o igual a Td Ts=8.1 - Td=8.2 2023-11-20 19:23:00
1 2017-07-01 02:00:00 Ts debe ser mayor o igual a Td Ts=11.6 - Td=11.7 2023-11-20 19:23:00
1 2017-07-02 11:00:00 Ts debe ser mayor o igual a Td Ts=8.5 - Td=8.6 2023-11-20 19:23:00
1 2017-07-02 12:00:00 Ts debe ser mayor o igual a Td Ts=8.4 - Td=8.5 2023-11-20 19:23:00
1 2017-07-02 13:00:00 Ts debe ser mayor o igual a Td Ts=8.8 - Td=8.9 2023-11-20 19:23:00
1 2017-07-02 23:00:00 Ts debe ser mayor o igual a Td Ts=10.7 - Td=10.8 2023-11-20 19:23:00
1 2017-07-03 23:00:00 Ts debe ser mayor o igual a Td Ts=8.3 - Td=8.4 2023-11-20 19:23:00
1 2017-07-10 17:00:00 Ts debe ser mayor o igual a Td Ts=7.0 - Td=7.1 2023-11-20 19:23:00
1 2017-07-14 10:00:00 Ts debe ser mayor o igual a Td Ts=5.6 - Td=5.7 2023-11-20 19:23:00
1 2017-07-19 13:00:00 Ts debe ser mayor o igual a Td Ts=4.8 - Td=4.9 2023-11-20 19:23:00
1 2017-07-20 13:00:00 Ts debe ser mayor o igual a Td Ts=10.7 - Td=10.8 2023-11-20 19:23:00
1 2017-07-21 03:00:00 Ts debe ser mayor o igual a Td Ts=9.2 - Td=9.3 2023-11-20 19:23:00
1 2017-07-21 06:00:00 Ts debe ser mayor o igual a Td Ts=9.3 - Td=9.4 2023-11-20 19:23:00
1 2017-07-28 05:00:00 Ts debe ser mayor o igual a Td Ts=6.9 - Td=7.0 2023-11-20 19:23:00
1 2017-08-14 10:00:00 Ts debe ser mayor o igual a Td Ts=4.8 - Td=4.9 2023-11-20 19:24:00
1 2017-08-14 13:00:00 Ts debe ser mayor o igual a Td Ts=7.8 - Td=7.9 2023-11-20 19:24:00
1 2017-08-18 13:00:00 Ts debe ser mayor o igual a Td Ts=7.6 - Td=7.7 2023-11-20 19:24:00
1 2017-08-31 16:00:00 Ts debe ser mayor o igual a Td Ts=7.3 - Td=7.4 2023-11-20 19:24:00
1 2017-08-31 21:00:00 Ts debe ser mayor o igual a Td Ts=8.1 - Td=8.2 2023-11-20 19:24:00
1 2017-08-31 22:00:00 Ts debe ser mayor o igual a Td Ts=8.1 - Td=8.2 2023-11-20 19:24:00
1 2017-09-01 04:00:00 Ts debe ser mayor o igual a Td Ts=8.3 - Td=8.4 2023-11-20 19:24:00
1 2017-09-01 10:00:00 Ts debe ser mayor o igual a Td Ts=8.7 - Td=8.8 2023-11-20 19:24:00
1 2017-09-06 12:00:00 Ts debe ser mayor o igual a Td Ts=4.8 - Td=4.9 2023-11-20 19:24:00
1 2017-09-08 14:00:00 Ts debe ser mayor o igual a Td Ts=8.1 - Td=8.2 2023-11-20 19:24:00
1 2017-09-20 12:00:00 Ts debe ser mayor o igual a Td Ts=4.8 - Td=4.9 2023-11-20 19:24:00
1 2017-09-23 13:00:00 Ts debe ser mayor o igual a Td Ts=7.1 - Td=7.2 2023-11-20 19:24:00
1 2017-10-03 06:00:00 Ts debe ser mayor o igual a Td Ts=7.0 - Td=7.1 2023-11-20 19:24:00
1 2017-10-08 07:00:00 Ts debe ser mayor o igual a Td Ts=5.7 - Td=5.8 2023-11-20 19:24:00
1 2017-10-08 09:00:00 Ts debe ser mayor o igual a Td Ts=6.9 - Td=7.0 2023-11-20 19:24:00
1 2017-10-08 10:00:00 Ts debe ser mayor o igual a Td Ts=6.9 - Td=7.0 2023-11-20 19:24:00
1 2017-10-08 12:00:00 Ts debe ser mayor o igual a Td Ts=8.5 - Td=8.6 2023-11-20 19:24:00
1 2017-10-14 11:00:00 Ts debe ser mayor o igual a Td Ts=8.7 - Td=8.8 2023-11-20 19:25:00
1 2017-10-18 11:00:00 Ts debe ser mayor o igual a Td Ts=7.8 - Td=7.9 2023-11-20 19:25:00
1 2017-10-25 11:00:00 Ts debe ser mayor o igual a Td Ts=7.0 - Td=7.1 2023-11-20 19:25:00
1 2017-11-05 08:00:00 Ts debe ser mayor o igual a Td Ts=11.6 - Td=11.7 2023-11-20 19:25:00
1 2017-11-15 10:00:00 Ts debe ser mayor o igual a Td Ts=5.7 - Td=5.8 2023-11-20 19:25:00
1 2017-12-30 07:00:00 Ts debe ser mayor o igual a Td Ts=11.4 - Td=11.5 2023-11-20 19:26:00
1 2018-01-06 11:00:00 Ts debe ser mayor o igual a Td Ts=9.1 - Td=9.2 2023-11-20 19:26:00
1 2018-03-10 04:00:00 Ts debe ser mayor o igual a Td Ts=8.2 - Td=8.3 2023-11-20 19:27:00
1 2018-03-10 05:00:00 Ts debe ser mayor o igual a Td Ts=8.2 - Td=8.3 2023-11-20 19:27:00
1 2018-03-10 13:00:00 Ts debe ser mayor o igual a Td Ts=7.8 - Td=7.9 2023-11-20 19:27:00
1 2018-03-10 14:00:00 Ts debe ser mayor o igual a Td Ts=9.0 - Td=9.1 2023-11-20 19:27:00
1 2018-03-15 12:00:00 Ts debe ser mayor o igual a Td Ts=7.1 - Td=7.2 2023-11-20 19:27:00
1 2018-03-17 05:00:00 Ts debe ser mayor o igual a Td Ts=9.3 - Td=9.4 2023-11-20 19:27:00
1 2018-03-18 13:00:00 Ts debe ser mayor o igual a Td Ts=9.4 - Td=9.5 2023-11-20 19:27:00
1 2018-03-27 10:00:00 Ts debe ser mayor o igual a Td Ts=7.0 - Td=7.1 2023-11-20 19:27:00
1 2018-03-27 12:00:00 Ts debe ser mayor o igual a Td Ts=9.3 - Td=9.4 2023-11-20 19:27:00
1 2018-03-29 12:00:00 Ts debe ser mayor o igual a Td Ts=7.3 - Td=7.4 2023-11-20 19:27:00
1 2018-04-08 11:00:00 Ts debe ser mayor o igual a Td Ts=9.3 - Td=9.4 2023-11-20 19:27:00
1 2018-04-28 14:00:00 Ts debe ser mayor o igual a Td Ts=7.5 - Td=7.6 2023-11-20 19:27:00
1 2018-05-03 01:00:00 Ts debe ser mayor o igual a Td Ts=9.3 - Td=9.4 2023-11-20 19:28:00
1 2018-05-03 05:00:00 Ts debe ser mayor o igual a Td Ts=9.4 - Td=9.5 2023-11-20 19:28:00
1 2018-05-03 07:00:00 Ts debe ser mayor o igual a Td Ts=8.9 - Td=9.0 2023-11-20 19:28:00
1 2018-05-06 05:00:00 Ts debe ser mayor o igual a Td Ts=8.3 - Td=8.4 2023-11-20 19:28:00
1 2018-05-06 14:00:00 Ts debe ser mayor o igual a Td Ts=10.6 - Td=10.7 2023-11-20 19:28:00
1 2018-05-07 05:00:00 Ts debe ser mayor o igual a Td Ts=9.0 - Td=9.1 2023-11-20 19:28:00
1 2018-05-07 08:00:00 Ts debe ser mayor o igual a Td Ts=9.2 - Td=9.3 2023-11-20 19:28:00
1 2018-05-07 13:00:00 Ts debe ser mayor o igual a Td Ts=10.8 - Td=10.9 2023-11-20 19:28:00
1 2018-05-08 04:00:00 Ts debe ser mayor o igual a Td Ts=11.4 - Td=11.5 2023-11-20 19:28:00
1 2018-05-08 05:00:00 Ts debe ser mayor o igual a Td Ts=11.7 - Td=11.8 2023-11-20 19:28:00
1 2018-05-08 12:00:00 Ts debe ser mayor o igual a Td Ts=11.4 - Td=11.5 2023-11-20 19:28:00
1 2018-05-09 11:00:00 Ts debe ser mayor o igual a Td Ts=9.2 - Td=9.3 2023-11-20 19:28:00
1 2018-05-09 14:00:00 Ts debe ser mayor o igual a Td Ts=10.6 - Td=10.7 2023-11-20 19:28:00
1 2018-05-10 14:00:00 Ts debe ser mayor o igual a Td Ts=9.3 - Td=9.4 2023-11-20 19:28:00
1 2018-05-12 10:00:00 Ts debe ser mayor o igual a Td Ts=8.7 - Td=8.8 2023-11-20 19:28:00
1 2018-05-18 10:00:00 Ts debe ser mayor o igual a Td Ts=9.1 - Td=9.2 2023-11-20 19:28:00
1 2018-05-18 11:00:00 Ts debe ser mayor o igual a Td Ts=9.1 - Td=9.2 2023-11-20 19:28:00
1 2018-05-18 13:00:00 Ts debe ser mayor o igual a Td Ts=9.4 - Td=9.5 2023-11-20 19:28:00
1 2018-05-18 15:00:00 Ts debe ser mayor o igual a Td Ts=10.7 - Td=10.8 2023-11-20 19:28:00
1 2018-05-19 15:00:00 Ts debe ser mayor o igual a Td Ts=7.3 - Td=7.4 2023-11-20 19:28:00
1 2018-05-29 07:00:00 Ts debe ser mayor o igual a Td Ts=6.9 - Td=7.0 2023-11-20 19:28:00
1 2018-05-29 09:00:00 Ts debe ser mayor o igual a Td Ts=6.9 - Td=7.0 2023-11-20 19:28:00
1 2018-06-05 07:00:00 Ts debe ser mayor o igual a Td Ts=4.8 - Td=4.9 2023-11-20 19:28:00
1 2018-06-05 08:00:00 Ts debe ser mayor o igual a Td Ts=5.7 - Td=5.8 2023-11-20 19:28:00
1 2018-06-08 02:00:00 Ts debe ser mayor o igual a Td Ts=7.0 - Td=7.1 2023-11-20 19:28:00
1 2018-06-08 06:00:00 Ts debe ser mayor o igual a Td Ts=4.8 - Td=4.9 2023-11-20 19:28:00
1 2018-06-11 01:00:00 Ts debe ser mayor o igual a Td Ts=4.8 - Td=4.9 2023-11-20 19:28:00
1 2018-06-16 04:00:00 Ts debe ser mayor o igual a Td Ts=9.2 - Td=9.3 2023-11-20 19:28:00
1 2018-06-17 01:00:00 Ts debe ser mayor o igual a Td Ts=11.4 - Td=11.5 2023-11-20 19:28:00
1 2018-06-17 05:00:00 Ts debe ser mayor o igual a Td Ts=8.3 - Td=8.4 2023-11-20 19:28:00
1 2018-06-18 09:00:00 Ts debe ser mayor o igual a Td Ts=7.7 - Td=7.8 2023-11-20 19:28:00
1 2018-06-19 09:00:00 Ts debe ser mayor o igual a Td Ts=11.8 - Td=11.9 2023-11-20 19:28:00
1 2018-06-21 15:00:00 Ts debe ser mayor o igual a Td Ts=8.2 - Td=8.3 2023-11-20 19:28:00
1 2018-06-22 12:00:00 Ts debe ser mayor o igual a Td Ts=8.2 - Td=8.3 2023-11-20 19:28:00
1 2018-06-26 10:00:00 Ts debe ser mayor o igual a Td Ts=7.5 - Td=7.6 2023-11-20 19:28:00
1 2018-06-28 09:00:00 Ts debe ser mayor o igual a Td Ts=5.7 - Td=5.8 2023-11-20 19:28:00
1 2018-06-28 14:00:00 Ts debe ser mayor o igual a Td Ts=7.5 - Td=7.6 2023-11-20 19:28:00
1 2018-06-28 23:00:00 Ts debe ser mayor o igual a Td Ts=8.3 - Td=8.4 2023-11-20 19:28:00
1 2018-06-29 02:00:00 Ts debe ser mayor o igual a Td Ts=8.3 - Td=8.4 2023-11-20 19:28:00
1 2018-07-07 14:00:00 Ts debe ser mayor o igual a Td Ts=7.8 - Td=7.9 2023-11-20 19:28:00
1 2018-07-10 18:00:00 Ts debe ser mayor o igual a Td Ts=8.5 - Td=8.6 2023-11-20 19:28:00
1 2018-07-13 03:00:00 Ts debe ser mayor o igual a Td Ts=11.6 - Td=11.7 2023-11-20 19:29:00
1 2018-07-13 12:00:00 Ts debe ser mayor o igual a Td Ts=10.8 - Td=10.9 2023-11-20 19:29:00
1 2018-07-13 13:00:00 Ts debe ser mayor o igual a Td Ts=11.5 - Td=11.6 2023-11-20 19:29:00
1 2018-07-14 13:00:00 Ts debe ser mayor o igual a Td Ts=6.9 - Td=7.0 2023-11-20 19:29:00
1 2018-07-16 16:00:00 Ts debe ser mayor o igual a Td Ts=5.7 - Td=5.8 2023-11-20 19:29:00
1 2018-07-19 16:00:00 Ts debe ser mayor o igual a Td Ts=8.7 - Td=8.8 2023-11-20 19:29:00
1 2018-08-04 22:00:00 Ts debe ser mayor o igual a Td Ts=8.9 - Td=9.0 2023-11-20 19:29:00
1 2018-08-04 23:00:00 Ts debe ser mayor o igual a Td Ts=8.5 - Td=8.6 2023-11-20 19:29:00
1 2018-08-05 17:00:00 Ts debe ser mayor o igual a Td Ts=10.5 - Td=10.6 2023-11-20 19:29:00
1 2018-08-05 18:00:00 Ts debe ser mayor o igual a Td Ts=10.6 - Td=10.7 2023-11-20 19:29:00
1 2018-08-05 21:00:00 Ts debe ser mayor o igual a Td Ts=10.4 - Td=10.5 2023-11-20 19:29:00
1 2018-08-06 05:00:00 Ts debe ser mayor o igual a Td Ts=10.6 - Td=10.7 2023-11-20 19:29:00
1 2018-08-08 16:00:00 Ts debe ser mayor o igual a Td Ts=7.4 - Td=7.5 2023-11-20 19:29:00
1 2018-08-10 01:00:00 Ts debe ser mayor o igual a Td Ts=7.2 - Td=7.3 2023-11-20 19:29:00
1 2018-08-10 14:00:00 Ts debe ser mayor o igual a Td Ts=7.0 - Td=7.1 2023-11-20 19:29:00
1 2018-08-11 14:00:00 Ts debe ser mayor o igual a Td Ts=8.5 - Td=8.6 2023-11-20 19:29:00
1 2018-08-12 09:00:00 Ts debe ser mayor o igual a Td Ts=8.7 - Td=8.8 2023-11-20 19:29:00
1 2018-08-12 11:00:00 Ts debe ser mayor o igual a Td Ts=7.1 - Td=7.2 2023-11-20 19:29:00
1 2018-08-13 13:00:00 Ts debe ser mayor o igual a Td Ts=7.0 - Td=7.1 2023-11-20 19:29:00
1 2018-08-15 15:00:00 Ts debe ser mayor o igual a Td Ts=6.9 - Td=7.0 2023-11-20 19:29:00
1 2018-08-26 04:00:00 Ts debe ser mayor o igual a Td Ts=8.4 - Td=8.5 2023-11-20 19:29:00
1 2018-08-26 09:00:00 Ts debe ser mayor o igual a Td Ts=7.5 - Td=7.6 2023-11-20 19:29:00
1 2018-08-26 13:00:00 Ts debe ser mayor o igual a Td Ts=8.4 - Td=8.5 2023-11-20 19:29:00
1 2018-08-27 05:00:00 Ts debe ser mayor o igual a Td Ts=7.8 - Td=7.9 2023-11-20 19:29:00
1 2018-08-27 08:00:00 Ts debe ser mayor o igual a Td Ts=8.4 - Td=8.5 2023-11-20 19:29:00
1 2018-08-27 12:00:00 Ts debe ser mayor o igual a Td Ts=8.7 - Td=8.8 2023-11-20 19:29:00
1 2018-09-17 04:00:00 Ts debe ser mayor o igual a Td Ts=9.2 - Td=9.3 2023-11-20 19:29:00
1 2018-09-17 06:00:00 Ts debe ser mayor o igual a Td Ts=9.1 - Td=9.2 2023-11-20 19:29:00
1 2018-09-17 07:00:00 Ts debe ser mayor o igual a Td Ts=9.1 - Td=9.2 2023-11-20 19:29:00
1 2018-09-18 10:00:00 Ts debe ser mayor o igual a Td Ts=6.9 - Td=7.0 2023-11-20 19:29:00
1 2018-09-19 08:00:00 Ts debe ser mayor o igual a Td Ts=5.6 - Td=5.7 2023-11-20 19:29:00
1 2018-09-23 12:00:00 Ts debe ser mayor o igual a Td Ts=7.2 - Td=7.3 2023-11-20 19:30:00
1 2018-11-02 09:00:00 Ts debe ser mayor o igual a Td Ts=8.5 - Td=8.6 2023-11-21 16:14:00
1 2018-11-02 10:00:00 Ts debe ser mayor o igual a Td Ts=8.6 - Td=8.7 2023-11-21 16:14:00
1 2018-11-11 10:00:00 Ts debe ser mayor o igual a Td Ts=8.9 - Td=9.0 2023-11-21 16:14:00
1 2018-11-18 11:00:00 Ts debe ser mayor o igual a Td Ts=9.4 - Td=9.5 2023-11-21 16:14:00
1 2018-11-19 11:00:00 Ts debe ser mayor o igual a Td Ts=9.1 - Td=9.2 2023-11-21 16:14:00
1 2018-12-11 08:00:00 Ts debe ser mayor o igual a Td Ts=7.7 - Td=7.8 2023-11-20 19:33:00
1 2019-03-07 13:00:00 Ts debe ser mayor o igual a Td Ts=13.2 - Td=13.3 2023-11-20 19:35:00
1 2019-03-30 11:00:00 Ts debe ser mayor o igual a Td Ts=7.3 - Td=7.4 2023-11-20 19:35:00
1 2019-03-31 13:00:00 Ts debe ser mayor o igual a Td Ts=9.1 - Td=9.2 2023-11-20 19:35:00
1 2019-04-06 13:00:00 Ts debe ser mayor o igual a Td Ts=7.1 - Td=7.2 2023-11-20 19:35:00
1 2019-04-07 11:00:00 Ts debe ser mayor o igual a Td Ts=8.9 - Td=9.0 2023-11-20 19:35:00
1 2019-04-08 11:00:00 Ts debe ser mayor o igual a Td Ts=9.1 - Td=9.2 2023-11-20 19:35:00
1 2019-04-12 13:00:00 Ts debe ser mayor o igual a Td Ts=7.6 - Td=7.7 2023-11-20 19:35:00
1 2019-04-13 08:00:00 Ts debe ser mayor o igual a Td Ts=7.3 - Td=7.4 2023-11-20 19:35:00
1 2019-04-13 12:00:00 Ts debe ser mayor o igual a Td Ts=7.7 - Td=7.8 2023-11-20 19:35:00
1 2019-04-14 12:00:00 Ts debe ser mayor o igual a Td Ts=7.0 - Td=7.1 2023-11-20 19:35:00
1 2019-04-19 06:00:00 Ts debe ser mayor o igual a Td Ts=5.6 - Td=5.7 2023-11-20 19:35:00
1 2019-04-21 12:00:00 Ts debe ser mayor o igual a Td Ts=6.9 - Td=7.0 2023-11-20 19:35:00
1 2019-04-22 13:00:00 Ts debe ser mayor o igual a Td Ts=9.2 - Td=9.3 2023-11-20 19:35:00
1 2019-04-26 11:00:00 Ts debe ser mayor o igual a Td Ts=7.1 - Td=7.2 2023-11-20 19:35:00
1 2019-04-29 08:00:00 Ts debe ser mayor o igual a Td Ts=7.0 - Td=7.1 2023-11-20 19:35:00
1 2019-04-29 11:00:00 Ts debe ser mayor o igual a Td Ts=5.6 - Td=5.7 2023-11-20 19:35:00
1 2019-04-29 14:00:00 Ts debe ser mayor o igual a Td Ts=9.0 - Td=9.1 2023-11-20 19:35:00
1 2019-04-30 14:00:00 Ts debe ser mayor o igual a Td Ts=7.3 - Td=7.4 2023-11-20 19:35:00
1 2019-05-02 23:00:00 Ts debe ser mayor o igual a Td Ts=10.6 - Td=10.7 2023-11-20 19:35:00
1 2019-05-04 04:00:00 Ts debe ser mayor o igual a Td Ts=13.3 - Td=13.4 2023-11-20 19:35:00
1 2019-05-04 07:00:00 Ts debe ser mayor o igual a Td Ts=12.5 - Td=12.6 2023-11-20 19:35:00
1 2019-05-05 12:00:00 Ts debe ser mayor o igual a Td Ts=10.7 - Td=10.8 2023-11-20 19:35:00
1 2019-05-10 04:00:00 Ts debe ser mayor o igual a Td Ts=9.2 - Td=9.3 2023-11-20 19:36:00
1 2019-05-10 06:00:00 Ts debe ser mayor o igual a Td Ts=9.1 - Td=9.2 2023-11-20 19:36:00
1 2019-05-10 11:00:00 Ts debe ser mayor o igual a Td Ts=8.9 - Td=9.0 2023-11-20 19:36:00
1 2019-05-12 01:00:00 Ts debe ser mayor o igual a Td Ts=13.2 - Td=13.3 2023-11-20 19:36:00
1 2019-05-16 03:00:00 Ts debe ser mayor o igual a Td Ts=7.3 - Td=7.4 2023-11-20 19:36:00
1 2019-05-18 06:00:00 Ts debe ser mayor o igual a Td Ts=5.6 - Td=5.7 2023-11-20 19:36:00
1 2019-05-19 08:00:00 Ts debe ser mayor o igual a Td Ts=8.7 - Td=8.8 2023-11-20 19:36:00
1 2019-05-19 09:00:00 Ts debe ser mayor o igual a Td Ts=8.7 - Td=8.8 2023-11-20 19:36:00
1 2019-05-19 11:00:00 Ts debe ser mayor o igual a Td Ts=8.4 - Td=8.5 2023-11-20 19:36:00
1 2019-05-19 13:00:00 Ts debe ser mayor o igual a Td Ts=8.8 - Td=8.9 2023-11-20 19:36:00
1 2019-05-24 14:00:00 Ts debe ser mayor o igual a Td Ts=4.8 - Td=4.9 2023-11-20 19:36:00
1 2019-05-26 09:00:00 Ts debe ser mayor o igual a Td Ts=7.3 - Td=7.4 2023-11-20 19:36:00
1 2019-05-26 10:00:00 Ts debe ser mayor o igual a Td Ts=7.2 - Td=7.3 2023-11-20 19:36:00
1 2019-05-26 13:00:00 Ts debe ser mayor o igual a Td Ts=7.1 - Td=7.2 2023-11-20 19:36:00
1 2019-05-26 14:00:00 Ts debe ser mayor o igual a Td Ts=7.4 - Td=7.5 2023-11-20 19:36:00
1 2019-05-28 06:00:00 Ts debe ser mayor o igual a Td Ts=7.3 - Td=7.4 2023-11-20 19:36:00
1 2019-05-28 07:00:00 Ts debe ser mayor o igual a Td Ts=7.4 - Td=7.5 2023-11-20 19:36:00
1 2019-05-28 08:00:00 Ts debe ser mayor o igual a Td Ts=7.5 - Td=7.6 2023-11-20 19:36:00
1 2019-05-28 10:00:00 Ts debe ser mayor o igual a Td Ts=7.5 - Td=7.6 2023-11-20 19:36:00
1 2019-05-29 17:00:00 Ts debe ser mayor o igual a Td Ts=7.3 - Td=7.4 2023-11-20 19:36:00
1 2019-05-29 18:00:00 Ts debe ser mayor o igual a Td Ts=8.4 - Td=8.5 2023-11-20 19:36:00
1 2019-06-09 12:00:00 Ts debe ser mayor o igual a Td Ts=8.9 - Td=9.0 2023-11-20 19:36:00
1 2019-06-09 15:00:00 Ts debe ser mayor o igual a Td Ts=9.3 - Td=9.4 2023-11-20 19:36:00
1 2019-06-09 22:00:00 Ts debe ser mayor o igual a Td Ts=8.3 - Td=8.4 2023-11-20 19:36:00
1 2019-06-12 18:00:00 Ts debe ser mayor o igual a Td Ts=4.8 - Td=4.9 2023-11-20 19:36:00
1 2019-06-12 21:00:00 Ts debe ser mayor o igual a Td Ts=5.6 - Td=5.7 2023-11-20 19:36:00
1 2019-06-13 18:00:00 Ts debe ser mayor o igual a Td Ts=7.6 - Td=7.7 2023-11-20 19:36:00
1 2019-06-19 04:00:00 Ts debe ser mayor o igual a Td Ts=7.6 - Td=7.7 2023-11-20 19:36:00
1 2019-06-19 06:00:00 Ts debe ser mayor o igual a Td Ts=7.7 - Td=7.8 2023-11-20 19:36:00
1 2019-06-19 12:00:00 Ts debe ser mayor o igual a Td Ts=7.2 - Td=7.3 2023-11-20 19:36:00
1 2019-06-22 13:00:00 Ts debe ser mayor o igual a Td Ts=10.8 - Td=10.9 2023-11-20 19:36:00
1 2019-06-23 00:00:00 Ts debe ser mayor o igual a Td Ts=11.7 - Td=11.8 2023-11-20 19:36:00
1 2019-06-23 01:00:00 Ts debe ser mayor o igual a Td Ts=11.6 - Td=11.7 2023-11-20 19:36:00
1 2019-06-23 02:00:00 Ts debe ser mayor o igual a Td Ts=11.6 - Td=11.7 2023-11-20 19:36:00
1 2019-06-23 12:00:00 Ts debe ser mayor o igual a Td Ts=4.8 - Td=4.9 2023-11-20 19:36:00
1 2019-06-25 15:00:00 Ts debe ser mayor o igual a Td Ts=7.0 - Td=7.1 2023-11-20 19:36:00
1 2019-06-27 13:00:00 Ts debe ser mayor o igual a Td Ts=7.5 - Td=7.6 2023-11-20 19:36:00
1 2019-07-04 16:00:00 Ts debe ser mayor o igual a Td Ts=8.6 - Td=8.7 2023-11-20 19:36:00
1 2019-07-11 13:00:00 Ts debe ser mayor o igual a Td Ts=7.3 - Td=7.4 2023-11-20 19:36:00
1 2019-07-17 07:00:00 Ts debe ser mayor o igual a Td Ts=10.3 - Td=10.4 2023-11-20 19:36:00
1 2019-07-18 13:00:00 Ts debe ser mayor o igual a Td Ts=5.7 - Td=5.8 2023-11-20 19:36:00
1 2019-07-20 18:00:00 Ts debe ser mayor o igual a Td Ts=5.7 - Td=5.8 2023-11-20 19:37:00
1 2019-07-31 00:00:00 Ts debe ser mayor o igual a Td Ts=7.7 - Td=7.8 2023-11-20 19:37:00
1 2019-08-04 18:00:00 Ts debe ser mayor o igual a Td Ts=5.7 - Td=5.8 2023-11-20 19:37:00
1 2019-08-11 02:00:00 Ts debe ser mayor o igual a Td Ts=7.2 - Td=7.3 2023-11-20 19:37:00
1 2019-08-11 05:00:00 Ts debe ser mayor o igual a Td Ts=7.4 - Td=7.5 2023-11-20 19:37:00
1 2019-08-12 05:00:00 Ts debe ser mayor o igual a Td Ts=4.8 - Td=4.9 2023-11-20 19:37:00
1 2019-08-12 07:00:00 Ts debe ser mayor o igual a Td Ts=4.8 - Td=4.9 2023-11-20 19:37:00
1 2019-08-16 06:00:00 Ts debe ser mayor o igual a Td Ts=9.0 - Td=9.1 2023-11-20 19:37:00
1 2019-08-16 07:00:00 Ts debe ser mayor o igual a Td Ts=8.8 - Td=8.9 2023-11-20 19:37:00
1 2019-08-16 10:00:00 Ts debe ser mayor o igual a Td Ts=8.3 - Td=8.4 2023-11-20 19:37:00
1 2019-08-16 12:00:00 Ts debe ser mayor o igual a Td Ts=8.3 - Td=8.4 2023-11-20 19:37:00
1 2019-08-17 22:00:00 Ts debe ser mayor o igual a Td Ts=9.0 - Td=9.1 2023-11-20 19:37:00
1 2019-08-18 00:00:00 Ts debe ser mayor o igual a Td Ts=9.0 - Td=9.1 2023-11-20 19:37:00
1 2019-08-18 02:00:00 Ts debe ser mayor o igual a Td Ts=8.6 - Td=8.7 2023-11-20 19:37:00
1 2019-08-18 03:00:00 Ts debe ser mayor o igual a Td Ts=7.5 - Td=7.6 2023-11-20 19:37:00
1 2019-08-21 08:00:00 Ts debe ser mayor o igual a Td Ts=8.9 - Td=9.0 2023-11-20 19:37:00
1 2019-08-21 09:00:00 Ts debe ser mayor o igual a Td Ts=8.9 - Td=9.0 2023-11-20 19:37:00
1 2019-08-23 08:00:00 Ts debe ser mayor o igual a Td Ts=6.9 - Td=7.0 2023-11-20 19:37:00
1 2019-08-25 04:00:00 Ts debe ser mayor o igual a Td Ts=5.7 - Td=5.8 2023-11-20 19:38:00
1 2019-08-30 12:00:00 Ts debe ser mayor o igual a Td Ts=5.6 - Td=5.7 2023-11-20 19:38:00
1 2019-10-01 04:00:00 Ts debe ser mayor o igual a Td Ts=3.0 - Td=3.7 2023-11-08 10:28:00
1 2019-10-01 06:00:00 Ts debe ser mayor o igual a Td Ts=3.4 - Td=3.5 2023-11-08 10:28:00
1 2019-10-01 07:00:00 Ts debe ser mayor o igual a Td Ts=3.5 - Td=3.9 2023-11-08 10:28:00
1 2019-10-01 09:00:00 HR (Humedad Relativa) es igual a 100% y Ts <> Td 3.3 - 1.9 2023-11-08 10:28:00
1 2019-10-01 10:00:00 HR (Humedad Relativa) es igual a 100% y Ts <> Td 1.9 - 0.9 2023-11-08 10:28:00
1 2019-10-01 11:00:00 Ts debe ser mayor o igual a Td Ts=0.9 - Td=2.1 2023-11-08 10:28:00
1 2019-10-01 11:00:00 HR (Humedad Relativa) es igual a 100% y Ts <> Td 0.9 - 2.1 2023-11-08 10:28:00
1 2019-10-01 12:00:00 Ts debe ser mayor o igual a Td Ts=2.1 - Td=3.7 2023-11-08 10:28:00
1 2019-10-01 12:00:00 HR (Humedad Relativa) es igual a 100% y Ts <> Td 2.1 - 3.7 2023-11-08 10:28:00
1 2019-10-01 13:00:00 Ts debe ser mayor o igual a Td Ts=3.7 - Td=7.5 2023-11-08 10:28:00
1 2019-10-01 13:00:00 HR (Humedad Relativa) es igual a 100% y Ts <> Td 3.7 - 7.5 2023-11-08 10:28:00
1 2019-10-02 06:00:00 Ts debe ser mayor o igual a Td Ts=-2.0 - Td=-1.9 2023-11-08 10:28:00
1 2019-10-02 09:00:00 HR (Humedad Relativa) es igual a 100% y Ts <> Td -2.9 - -3.3 2023-11-08 10:28:00
1 2019-10-02 11:00:00 Ts debe ser mayor o igual a Td Ts=-3.4 - Td=-2.6 2023-11-08 10:28:00
1 2019-10-02 12:00:00 Ts debe ser mayor o igual a Td Ts=-2.6 - Td=2.6 2023-11-08 10:28:00
1 2019-10-02 13:00:00 Ts debe ser mayor o igual a Td Ts=2.6 - Td=7.0 2023-11-08 10:28:00
1 2019-10-02 13:00:00 HR (Humedad Relativa) es igual a 100% y Ts <> Td 2.6 - 7.0 2023-11-08 10:28:00
1 2019-10-03 08:00:00 Ts debe ser mayor o igual a Td Ts=0.6 - Td=3.1 2023-11-08 10:28:00
1 2019-10-04 06:00:00 Ts debe ser mayor o igual a Td Ts=7.1 - Td=7.2 2023-11-08 10:28:00
1 2019-10-04 11:00:00 Ts debe ser mayor o igual a Td Ts=6.1 - Td=6.3 2023-11-08 10:28:00
1 2019-10-04 12:00:00 Ts debe ser mayor o igual a Td Ts=6.4 - Td=6.9 2023-11-08 10:28:00
1 2019-10-04 13:00:00 Ts debe ser mayor o igual a Td Ts=7.1 - Td=7.8 2023-11-08 10:28:00
1 2019-10-05 05:00:00 Ts debe ser mayor o igual a Td Ts=-0.2 - Td=0.8 2023-11-08 10:28:00
1 2019-10-05 07:00:00 Ts debe ser mayor o igual a Td Ts=-0.5 - Td=0.4 2023-11-08 10:28:00
1 2019-10-05 09:00:00 HR (Humedad Relativa) es igual a 100% y Ts <> Td 0.4 - 0.2 2023-11-08 10:28:00
1 2019-10-05 10:00:00 Ts debe ser mayor o igual a Td Ts=0.2 - Td=0.8 2023-11-08 10:28:00
1 2019-10-05 10:00:00 HR (Humedad Relativa) es igual a 100% y Ts <> Td 0.2 - 0.8 2023-11-08 10:28:00
1 2019-10-05 11:00:00 Ts debe ser mayor o igual a Td Ts=0.8 - Td=1.7 2023-11-08 10:28:00
1 2019-10-05 11:00:00 HR (Humedad Relativa) es igual a 100% y Ts <> Td 0.8 - 1.7 2023-11-08 10:28:00
1 2019-10-05 12:00:00 Ts debe ser mayor o igual a Td Ts=1.7 - Td=4.4 2023-11-08 10:28:00
1 2019-10-05 12:00:00 HR (Humedad Relativa) es igual a 100% y Ts <> Td 1.7 - 4.4 2023-11-08 10:28:00
1 2019-10-05 13:00:00 Ts debe ser mayor o igual a Td Ts=4.4 - Td=6.3 2023-11-08 10:28:00
1 2019-10-05 13:00:00 HR (Humedad Relativa) es igual a 100% y Ts <> Td 4.4 - 6.3 2023-11-08 10:28:00
1 2019-10-05 14:00:00 Ts debe ser mayor o igual a Td Ts=6.4 - Td=8.3 2023-11-08 10:28:00
1 2019-10-06 11:00:00 Ts debe ser mayor o igual a Td Ts=8.4 - Td=8.8 2023-11-08 10:28:00
1 2019-10-06 12:00:00 Ts debe ser mayor o igual a Td Ts=8.9 - Td=9.7 2023-11-08 10:28:00
1 2019-10-06 13:00:00 Ts debe ser mayor o igual a Td Ts=10.0 - Td=11.9 2023-11-08 10:28:00
1 2019-10-07 06:00:00 Ts debe ser mayor o igual a Td Ts=3.8 - Td=3.9 2023-11-08 10:28:00
1 2019-10-07 08:00:00 Ts debe ser mayor o igual a Td Ts=3.9 - Td=4.2 2023-11-08 10:28:00
1 2019-10-07 11:00:00 HR (Humedad Relativa) es igual a 100% y Ts <> Td 3.8 - 3.3 2023-11-08 10:28:00
1 2019-10-07 12:00:00 Ts debe ser mayor o igual a Td Ts=3.3 - Td=9.8 2023-11-08 10:28:00
1 2019-10-07 12:00:00 HR (Humedad Relativa) es igual a 100% y Ts <> Td 3.3 - 9.8 2023-11-08 10:28:00
1 2019-10-08 06:00:00 Ts debe ser mayor o igual a Td Ts=-0.4 - Td=1.2 2023-11-08 10:28:00
1 2019-10-08 07:00:00 Ts debe ser mayor o igual a Td Ts=1.4 - Td=1.5 2023-11-08 10:28:00
1 2019-10-08 08:00:00 Ts debe ser mayor o igual a Td Ts=1.7 - Td=2.0 2023-11-08 10:28:00
1 2019-10-08 10:00:00 Ts debe ser mayor o igual a Td Ts=0.5 - Td=1.3 2023-11-08 10:28:00
1 2019-10-08 11:00:00 Ts debe ser mayor o igual a Td Ts=1.3 - Td=3.2 2023-11-08 10:28:00
1 2019-10-08 11:00:00 HR (Humedad Relativa) es igual a 100% y Ts <> Td 1.3 - 3.2 2023-11-08 10:28:00
1 2019-10-08 12:00:00 Ts debe ser mayor o igual a Td Ts=3.2 - Td=5.3 2023-11-08 10:28:00
1 2019-10-08 12:00:00 HR (Humedad Relativa) es igual a 100% y Ts <> Td 3.2 - 5.3 2023-11-08 10:28:00
1 2019-10-08 13:00:00 Ts debe ser mayor o igual a Td Ts=5.4 - Td=9.5 2023-11-08 10:28:00
1 2019-10-09 10:00:00 Ts debe ser mayor o igual a Td Ts=0.4 - Td=0.8 2023-11-08 10:28:00
1 2019-10-09 10:00:00 HR (Humedad Relativa) es igual a 100% y Ts <> Td 0.4 - 0.8 2023-11-08 10:28:00
1 2019-10-09 11:00:00 Ts debe ser mayor o igual a Td Ts=0.8 - Td=2.7 2023-11-08 10:28:00
1 2019-10-09 12:00:00 Ts debe ser mayor o igual a Td Ts=2.7 - Td=7.4 2023-11-08 10:28:00
1 2019-10-09 12:00:00 HR (Humedad Relativa) es igual a 100% y Ts <> Td 2.7 - 7.4 2023-11-08 10:28:00
1 2019-10-09 13:00:00 Ts debe ser mayor o igual a Td Ts=7.6 - Td=8.8 2023-11-08 10:28:00
1 2019-10-10 10:00:00 Ts debe ser mayor o igual a Td Ts=5.0 - Td=5.1 2023-11-08 10:29:00
1 2019-10-10 11:00:00 Ts debe ser mayor o igual a Td Ts=5.1 - Td=7.9 2023-11-08 10:29:00
1 2019-10-10 11:00:00 HR (Humedad Relativa) es igual a 100% y Ts <> Td 5.1 - 7.9 2023-11-08 10:29:00
1 2019-10-10 12:00:00 Ts debe ser mayor o igual a Td Ts=7.9 - Td=9.4 2023-11-08 10:29:00
1 2019-10-10 12:00:00 HR (Humedad Relativa) es igual a 100% y Ts <> Td 7.9 - 9.4 2023-11-08 10:29:00
1 2019-10-10 13:00:00 Ts debe ser mayor o igual a Td Ts=9.3 - Td=10.9 2023-11-08 10:29:00
1 2019-10-10 13:00:00 HR (Humedad Relativa) es igual a 100% y Ts <> Td 9.3 - 10.9 2023-11-08 10:29:00
1 2019-10-10 14:00:00 Ts debe ser mayor o igual a Td Ts=11.1 - Td=11.9 2023-11-08 10:29:00
1 2019-10-11 02:00:00 Ts debe ser mayor o igual a Td Ts=6.4 - Td=7.6 2023-11-08 10:29:00
1 2019-10-11 11:00:00 Ts debe ser mayor o igual a Td Ts=2.3 - Td=4.3 2023-11-08 10:29:00
1 2019-10-11 12:00:00 Ts debe ser mayor o igual a Td Ts=4.3 - Td=7.1 2023-11-08 10:29:00
1 2019-10-11 13:00:00 Ts debe ser mayor o igual a Td Ts=7.1 - Td=10.3 2023-11-08 10:29:00
1 2019-10-11 13:00:00 HR (Humedad Relativa) es igual a 100% y Ts <> Td 7.1 - 10.3 2023-11-08 10:29:00
1 2019-10-11 14:00:00 Ts debe ser mayor o igual a Td Ts=10.9 - Td=11.0 2023-11-08 10:29:00
1 2019-10-12 10:00:00 Ts debe ser mayor o igual a Td Ts=7.9 - Td=8.2 2023-11-08 10:29:00
1 2019-10-12 11:00:00 Ts debe ser mayor o igual a Td Ts=8.3 - Td=9.6 2023-11-08 10:29:00
1 2019-10-13 13:00:00 Ts debe ser mayor o igual a Td Ts=6.9 - Td=7.1 2023-11-08 10:29:00
1 2019-10-16 11:00:00 Ts debe ser mayor o igual a Td Ts=6.4 - Td=8.1 2023-11-08 10:29:00
1 2019-10-16 12:00:00 Ts debe ser mayor o igual a Td Ts=8.1 - Td=10.4 2023-11-08 10:29:00
1 2019-10-17 03:00:00 Ts debe ser mayor o igual a Td Ts=5.4 - Td=5.6 2023-11-08 10:29:00
1 2019-10-17 11:00:00 Ts debe ser mayor o igual a Td Ts=6.0 - Td=6.8 2023-11-08 10:29:00
1 2019-10-17 12:00:00 Ts debe ser mayor o igual a Td Ts=7.0 - Td=8.1 2023-11-08 10:29:00
1 2019-10-19 11:00:00 Ts debe ser mayor o igual a Td Ts=1.1 - Td=2.8 2023-11-08 10:29:00
1 2019-10-19 12:00:00 Ts debe ser mayor o igual a Td Ts=3.0 - Td=6.3 2023-11-08 10:29:00
1 2019-10-19 13:00:00 Ts debe ser mayor o igual a Td Ts=6.5 - Td=9.5 2023-11-08 10:29:00
1 2019-10-21 04:00:00 Ts debe ser mayor o igual a Td Ts=4.0 - Td=4.3 2023-11-08 10:29:00
1 2019-10-21 05:00:00 Ts debe ser mayor o igual a Td Ts=4.4 - Td=4.8 2023-11-08 10:29:00
1 2019-10-21 06:00:00 Ts debe ser mayor o igual a Td Ts=4.8 - Td=5.4 2023-11-08 10:29:00
1 2019-10-21 07:00:00 Ts debe ser mayor o igual a Td Ts=5.5 - Td=6.1 2023-11-08 10:29:00
1 2019-10-21 10:00:00 HR (Humedad Relativa) es igual a 100% y Ts <> Td 3.9 - 2.4 2023-11-08 10:29:00
1 2019-10-21 11:00:00 Ts debe ser mayor o igual a Td Ts=2.4 - Td=5.6 2023-11-08 10:29:00
1 2019-10-21 11:00:00 HR (Humedad Relativa) es igual a 100% y Ts <> Td 2.4 - 5.6 2023-11-08 10:29:00
1 2019-10-21 12:00:00 Ts debe ser mayor o igual a Td Ts=5.6 - Td=8.1 2023-11-08 10:29:00
1 2019-10-21 12:00:00 HR (Humedad Relativa) es igual a 100% y Ts <> Td 5.6 - 8.1 2023-11-08 10:29:00
1 2019-10-22 07:00:00 Ts debe ser mayor o igual a Td Ts=3.0 - Td=4.3 2023-11-08 10:29:00
1 2019-10-22 13:00:00 Ts debe ser mayor o igual a Td Ts=7.7 - Td=7.8 2023-11-08 10:29:00
1 2019-10-23 06:00:00 Ts debe ser mayor o igual a Td Ts=4.7 - Td=5.7 2023-11-08 10:29:00
1 2019-10-24 08:00:00 Ts debe ser mayor o igual a Td Ts=0.9 - Td=2.6 2023-11-08 10:29:00
1 2019-10-24 10:00:00 Ts debe ser mayor o igual a Td Ts=2.8 - Td=3.7 2023-11-08 10:29:00
1 2019-10-24 11:00:00 Ts debe ser mayor o igual a Td Ts=3.8 - Td=5.9 2023-11-08 10:29:00
1 2019-10-24 12:00:00 Ts debe ser mayor o igual a Td Ts=6.0 - Td=8.0 2023-11-08 10:29:00
1 2019-10-24 13:00:00 Ts debe ser mayor o igual a Td Ts=8.2 - Td=9.0 2023-11-08 10:29:00
1 2019-10-25 10:00:00 Ts debe ser mayor o igual a Td Ts=9.7 - Td=10.0 2023-11-08 10:29:00
1 2019-10-25 11:00:00 Ts debe ser mayor o igual a Td Ts=10.1 - Td=10.6 2023-11-08 10:29:00
1 2019-10-25 12:00:00 Ts debe ser mayor o igual a Td Ts=10.8 - Td=11.0 2023-11-08 10:29:00
1 2019-10-25 14:00:00 Ts debe ser mayor o igual a Td Ts=12.6 - Td=12.7 2023-11-08 10:29:00
1 2019-10-26 11:00:00 Ts debe ser mayor o igual a Td Ts=10.3 - Td=11.1 2023-11-08 10:29:00
1 2019-10-26 12:00:00 Ts debe ser mayor o igual a Td Ts=11.2 - Td=11.3 2023-11-08 10:29:00
1 2019-10-26 13:00:00 Ts debe ser mayor o igual a Td Ts=11.4 - Td=11.7 2023-11-08 10:29:00
1 2019-10-27 10:00:00 Ts debe ser mayor o igual a Td Ts=2.5 - Td=2.8 2023-11-08 10:29:00
1 2019-10-27 11:00:00 Ts debe ser mayor o igual a Td Ts=2.8 - Td=4.6 2023-11-08 10:29:00
1 2019-10-27 11:00:00 HR (Humedad Relativa) es igual a 100% y Ts <> Td 2.8 - 4.6 2023-11-08 10:29:00
1 2019-10-27 12:00:00 Ts debe ser mayor o igual a Td Ts=4.6 - Td=7.3 2023-11-08 10:29:00
1 2019-10-27 12:00:00 HR (Humedad Relativa) es igual a 100% y Ts <> Td 4.6 - 7.3 2023-11-08 10:29:00
1 2019-10-27 13:00:00 Ts debe ser mayor o igual a Td Ts=7.3 - Td=9.0 2023-11-08 10:29:00
1 2019-10-27 13:00:00 HR (Humedad Relativa) es igual a 100% y Ts <> Td 7.3 - 9.0 2023-11-08 10:29:00
1 2019-10-27 14:00:00 Ts debe ser mayor o igual a Td Ts=9.1 - Td=10.0 2023-11-08 10:29:00
1 2019-10-28 13:00:00 Ts debe ser mayor o igual a Td Ts=9.0 - Td=10.4 2023-11-08 10:29:00
1 2019-10-29 11:00:00 Ts debe ser mayor o igual a Td Ts=8.6 - Td=8.8 2023-11-08 10:29:00
1 2019-10-29 12:00:00 Ts debe ser mayor o igual a Td Ts=9.4 - Td=9.6 2023-11-08 10:29:00
1 2019-10-29 19:00:00 Ts debe ser mayor o igual a Td Ts=10.0 - Td=10.1 2023-11-08 10:29:00
1 2019-10-30 06:00:00 Ts debe ser mayor o igual a Td Ts=0.7 - Td=2.1 2023-11-08 10:29:00
1 2019-10-30 07:00:00 Ts debe ser mayor o igual a Td Ts=2.1 - Td=2.2 2023-11-08 10:29:00
1 2019-10-30 08:00:00 HR (Humedad Relativa) es igual a 100% y Ts <> Td 2.2 - 1.9 2023-11-08 10:29:00
1 2019-10-30 11:00:00 Ts debe ser mayor o igual a Td Ts=1.7 - Td=2.6 2023-11-08 10:29:00
1 2019-10-30 11:00:00 HR (Humedad Relativa) es igual a 100% y Ts <> Td 1.7 - 2.6 2023-11-08 10:29:00
1 2019-10-30 12:00:00 Ts debe ser mayor o igual a Td Ts=2.6 - Td=5.0 2023-11-08 10:29:00
1 2019-10-30 12:00:00 HR (Humedad Relativa) es igual a 100% y Ts <> Td 2.6 - 5.0 2023-11-08 10:29:00
1 2019-10-30 13:00:00 Ts debe ser mayor o igual a Td Ts=5.0 - Td=11.5 2023-11-08 10:29:00
1 2019-10-30 13:00:00 HR (Humedad Relativa) es igual a 100% y Ts <> Td 5.0 - 11.5 2023-11-08 10:29:00
1 2019-10-31 08:00:00 Ts debe ser mayor o igual a Td Ts=-0.7 - Td=-0.1 2023-11-08 10:29:00
1 2019-10-31 09:00:00 Ts debe ser mayor o igual a Td Ts=0.1 - Td=0.7 2023-11-08 10:29:00
1 2019-10-31 11:00:00 Ts debe ser mayor o igual a Td Ts=0.6 - Td=1.7 2023-11-08 10:29:00
1 2019-10-31 11:00:00 HR (Humedad Relativa) es igual a 100% y Ts <> Td 0.6 - 1.7 2023-11-08 10:29:00
1 2019-10-31 12:00:00 Ts debe ser mayor o igual a Td Ts=1.7 - Td=6.8 2023-11-08 10:29:00
1 2019-10-31 12:00:00 HR (Humedad Relativa) es igual a 100% y Ts <> Td 1.7 - 6.8 2023-11-08 10:29:00
1 2019-10-31 13:00:00 Ts debe ser mayor o igual a Td Ts=6.8 - Td=9.3 2023-11-08 10:29:00
1 2019-11-01 14:00:00 Ts debe ser mayor o igual a Td Ts=10.8 - Td=11.6 2023-11-08 10:29:00
1 2019-11-01 19:00:00 Ts debe ser mayor o igual a Td Ts=11.6 - Td=12.7 2023-11-08 10:29:00
1 2019-11-02 06:00:00 Ts debe ser mayor o igual a Td Ts=0.5 - Td=1.0 2023-11-08 10:29:00
1 2019-11-02 07:00:00 Ts debe ser mayor o igual a Td Ts=1.0 - Td=1.8 2023-11-08 10:29:00
1 2019-11-02 08:00:00 Ts debe ser mayor o igual a Td Ts=1.8 - Td=1.9 2023-11-08 10:29:00
1 2019-11-02 11:00:00 Ts debe ser mayor o igual a Td Ts=1.5 - Td=2.7 2023-11-08 10:29:00
1 2019-11-02 11:00:00 HR (Humedad Relativa) es igual a 100% y Ts <> Td 1.5 - 2.7 2023-11-08 10:29:00
1 2019-11-02 12:00:00 Ts debe ser mayor o igual a Td Ts=2.7 - Td=8.2 2023-11-08 10:29:00
1 2019-11-02 12:00:00 HR (Humedad Relativa) es igual a 100% y Ts <> Td 2.7 - 8.2 2023-11-08 10:29:00
1 2019-11-02 13:00:00 Ts debe ser mayor o igual a Td Ts=8.3 - Td=9.0 2023-11-08 10:29:00
1 2019-11-03 07:00:00 Ts debe ser mayor o igual a Td Ts=0.5 - Td=1.7 2023-11-08 10:29:00
1 2019-11-03 08:00:00 HR (Humedad Relativa) es igual a 100% y Ts <> Td 1.7 - 0.5 2023-11-08 10:29:00
1 2019-11-03 10:00:00 Ts debe ser mayor o igual a Td Ts=-0.1 - Td=0.9 2023-11-08 10:29:00
1 2019-11-03 10:00:00 HR (Humedad Relativa) es igual a 100% y Ts <> Td -0.1 - 0.9 2023-11-08 10:29:00
1 2019-11-03 11:00:00 Ts debe ser mayor o igual a Td Ts=0.9 - Td=5.9 2023-11-08 10:29:00
1 2019-11-03 11:00:00 HR (Humedad Relativa) es igual a 100% y Ts <> Td 0.9 - 5.9 2023-11-08 10:29:00
1 2019-11-03 12:00:00 Ts debe ser mayor o igual a Td Ts=5.9 - Td=9.6 2023-11-08 10:29:00
1 2019-11-03 12:00:00 HR (Humedad Relativa) es igual a 100% y Ts <> Td 5.9 - 9.6 2023-11-08 10:29:00
1 2019-11-04 07:00:00 Ts debe ser mayor o igual a Td Ts=5.0 - Td=5.5 2023-11-08 10:29:00
1 2019-11-04 09:00:00 Ts debe ser mayor o igual a Td Ts=5.3 - Td=5.4 2023-11-08 10:29:00
1 2019-11-04 11:00:00 Ts debe ser mayor o igual a Td Ts=5.3 - Td=8.9 2023-11-08 10:29:00
1 2019-11-04 11:00:00 HR (Humedad Relativa) es igual a 100% y Ts <> Td 5.3 - 8.9 2023-11-08 10:29:00
1 2019-11-04 12:00:00 Ts debe ser mayor o igual a Td Ts=8.9 - Td=9.2 2023-11-08 10:29:00
1 2019-11-04 12:00:00 HR (Humedad Relativa) es igual a 100% y Ts <> Td 8.9 - 9.2 2023-11-08 10:29:00
1 2019-11-04 13:00:00 Ts debe ser mayor o igual a Td Ts=9.4 - Td=10.0 2023-11-08 10:29:00
1 2019-11-05 07:00:00 Ts debe ser mayor o igual a Td Ts=-0.9 - Td=-0.5 2023-11-08 10:29:00
1 2019-11-05 08:00:00 Ts debe ser mayor o igual a Td Ts=-0.4 - Td=-0.3 2023-11-08 10:29:00
1 2019-11-05 10:00:00 Ts debe ser mayor o igual a Td Ts=-0.7 - Td=-0.6 2023-11-08 10:29:00
1 2019-11-05 11:00:00 Ts debe ser mayor o igual a Td Ts=-0.6 - Td=3.3 2023-11-08 10:29:00
1 2019-11-05 12:00:00 Ts debe ser mayor o igual a Td Ts=3.4 - Td=7.8 2023-11-08 10:29:00
1 2019-11-06 02:00:00 Ts debe ser mayor o igual a Td Ts=7.6 - Td=7.9 2023-11-08 10:29:00
1 2019-11-06 08:00:00 Ts debe ser mayor o igual a Td Ts=1.9 - Td=4.0 2023-11-08 10:29:00
1 2019-11-06 09:00:00 Ts debe ser mayor o igual a Td Ts=4.1 - Td=5.5 2023-11-08 10:29:00
1 2019-11-06 10:00:00 Ts debe ser mayor o igual a Td Ts=5.6 - Td=6.1 2023-11-08 10:29:00
1 2019-11-06 11:00:00 Ts debe ser mayor o igual a Td Ts=6.3 - Td=7.3 2023-11-08 10:29:00
1 2019-11-06 12:00:00 Ts debe ser mayor o igual a Td Ts=7.5 - Td=8.5 2023-11-08 10:29:00
1 2019-11-06 13:00:00 Ts debe ser mayor o igual a Td Ts=8.9 - Td=9.2 2023-11-08 10:29:00
1 2019-11-07 03:00:00 Ts debe ser mayor o igual a Td Ts=7.1 - Td=7.2 2023-11-08 10:29:00
1 2019-11-07 04:00:00 Ts debe ser mayor o igual a Td Ts=7.5 - Td=7.9 2023-11-08 10:29:00
1 2019-11-07 05:00:00 Ts debe ser mayor o igual a Td Ts=8.1 - Td=8.8 2023-11-08 10:29:00
1 2019-11-07 11:00:00 Ts debe ser mayor o igual a Td Ts=3.8 - Td=10.0 2023-11-08 10:29:00
1 2019-11-07 11:00:00 HR (Humedad Relativa) es igual a 100% y Ts <> Td 3.8 - 10.0 2023-11-08 10:29:00
1 2019-11-09 10:00:00 Ts debe ser mayor o igual a Td Ts=3.2 - Td=7.6 2023-11-08 10:29:00
1 2019-11-10 07:00:00 Ts debe ser mayor o igual a Td Ts=8.0 - Td=8.4 2023-11-08 10:29:00
1 2019-11-10 10:00:00 Ts debe ser mayor o igual a Td Ts=7.6 - Td=9.2 2023-11-08 10:29:00
1 2019-11-10 11:00:00 Ts debe ser mayor o igual a Td Ts=10.5 - Td=10.6 2023-11-08 10:29:00
1 2019-11-12 05:00:00 Ts debe ser mayor o igual a Td Ts=9.1 - Td=11.0 2023-11-08 10:29:00
1 2019-11-12 10:00:00 Ts debe ser mayor o igual a Td Ts=5.4 - Td=5.6 2023-11-08 10:29:00
1 2019-11-12 11:00:00 Ts debe ser mayor o igual a Td Ts=5.6 - Td=9.7 2023-11-08 10:29:00
1 2019-11-12 12:00:00 Ts debe ser mayor o igual a Td Ts=9.8 - Td=11.1 2023-11-08 10:29:00
1 2019-11-12 13:00:00 Ts debe ser mayor o igual a Td Ts=11.8 - Td=12.6 2023-11-08 10:29:00
1 2019-11-13 06:00:00 Ts debe ser mayor o igual a Td Ts=7.5 - Td=8.3 2023-11-08 10:29:00
1 2019-11-13 07:00:00 Ts debe ser mayor o igual a Td Ts=8.6 - Td=9.1 2023-11-08 10:29:00
1 2019-11-13 11:00:00 Ts debe ser mayor o igual a Td Ts=8.1 - Td=9.7 2023-11-08 10:29:00
1 2019-11-13 12:00:00 Ts debe ser mayor o igual a Td Ts=10.1 - Td=10.6 2023-11-08 10:29:00
1 2019-11-13 13:00:00 Ts debe ser mayor o igual a Td Ts=11.4 - Td=13.3 2023-11-08 10:29:00
1 2019-11-14 09:00:00 Ts debe ser mayor o igual a Td Ts=5.5 - Td=6.4 2023-11-08 10:29:00
1 2019-11-14 10:00:00 Ts debe ser mayor o igual a Td Ts=6.4 - Td=8.3 2023-11-08 10:29:00
1 2019-11-14 10:00:00 HR (Humedad Relativa) es igual a 100% y Ts <> Td 6.4 - 8.3 2023-11-08 10:29:00
1 2019-11-14 11:00:00 Ts debe ser mayor o igual a Td Ts=8.3 - Td=10.3 2023-11-08 10:29:00
1 2019-11-14 11:00:00 HR (Humedad Relativa) es igual a 100% y Ts <> Td 8.3 - 10.3 2023-11-08 10:29:00
1 2019-11-14 12:00:00 Ts debe ser mayor o igual a Td Ts=10.3 - Td=11.8 2023-11-08 10:29:00
1 2019-11-14 13:00:00 Ts debe ser mayor o igual a Td Ts=11.9 - Td=13.6 2023-11-08 10:29:00
1 2019-11-15 16:00:00 Ts debe ser mayor o igual a Td Ts=16.3 - Td=16.5 2023-11-08 10:29:00
1 2019-11-16 06:00:00 Ts debe ser mayor o igual a Td Ts=4.6 - Td=4.8 2023-11-08 10:29:00
1 2019-11-16 07:00:00 Ts debe ser mayor o igual a Td Ts=4.8 - Td=6.0 2023-11-08 10:29:00
1 2019-11-16 09:00:00 Ts debe ser mayor o igual a Td Ts=5.4 - Td=6.3 2023-11-08 10:29:00
1 2019-11-16 09:00:00 HR (Humedad Relativa) es igual a 100% y Ts <> Td 5.4 - 6.3 2023-11-08 10:29:00
1 2019-11-16 10:00:00 Ts debe ser mayor o igual a Td Ts=6.3 - Td=8.7 2023-11-08 10:29:00
1 2019-11-16 10:00:00 HR (Humedad Relativa) es igual a 100% y Ts <> Td 6.3 - 8.7 2023-11-08 10:29:00
1 2019-11-16 11:00:00 Ts debe ser mayor o igual a Td Ts=8.6 - Td=10.7 2023-11-08 10:29:00
1 2019-11-16 11:00:00 HR (Humedad Relativa) es igual a 100% y Ts <> Td 8.6 - 10.7 2023-11-08 10:29:00
1 2019-11-16 12:00:00 Ts debe ser mayor o igual a Td Ts=10.8 - Td=12.8 2023-11-08 10:29:00
1 2019-11-18 04:00:00 Ts debe ser mayor o igual a Td Ts=9.5 - Td=10.7 2023-11-08 10:29:00
1 2019-11-18 11:00:00 Ts debe ser mayor o igual a Td Ts=7.9 - Td=11.4 2023-11-08 10:29:00
1 2019-11-18 11:00:00 HR (Humedad Relativa) es igual a 100% y Ts <> Td 7.9 - 11.4 2023-11-08 10:29:00
1 2019-11-18 12:00:00 Ts debe ser mayor o igual a Td Ts=11.4 - Td=12.9 2023-11-08 10:29:00
1 2019-11-19 06:00:00 Ts debe ser mayor o igual a Td Ts=6.5 - Td=8.1 2023-11-08 10:29:00
1 2019-11-19 07:00:00 Ts debe ser mayor o igual a Td Ts=8.2 - Td=8.6 2023-11-08 10:29:00
1 2019-11-19 09:00:00 Ts debe ser mayor o igual a Td Ts=8.2 - Td=8.3 2023-11-08 10:29:00
1 2019-11-19 10:00:00 Ts debe ser mayor o igual a Td Ts=8.2 - Td=8.6 2023-11-08 10:29:00
1 2019-11-19 10:00:00 HR (Humedad Relativa) es igual a 100% y Ts <> Td 8.2 - 8.6 2023-11-08 10:29:00
1 2019-11-19 11:00:00 Ts debe ser mayor o igual a Td Ts=8.6 - Td=9.7 2023-11-08 10:29:00
1 2019-11-19 11:00:00 HR (Humedad Relativa) es igual a 100% y Ts <> Td 8.6 - 9.7 2023-11-08 10:29:00
1 2019-11-19 12:00:00 Ts debe ser mayor o igual a Td Ts=9.7 - Td=12.3 2023-11-08 10:29:00
1 2019-11-19 12:00:00 HR (Humedad Relativa) es igual a 100% y Ts <> Td 9.7 - 12.3 2023-11-08 10:29:00
1 2019-11-19 13:00:00 Ts debe ser mayor o igual a Td Ts=12.2 - Td=13.7 2023-11-08 10:29:00
1 2019-11-19 13:00:00 HR (Humedad Relativa) es igual a 100% y Ts <> Td 12.2 - 13.7 2023-11-08 10:29:00
1 2019-11-19 14:00:00 Ts debe ser mayor o igual a Td Ts=14.5 - Td=14.8 2023-11-08 10:29:00
1 2019-11-20 07:00:00 Ts debe ser mayor o igual a Td Ts=2.1 - Td=2.3 2023-11-08 10:29:00
1 2019-11-20 08:00:00 Ts debe ser mayor o igual a Td Ts=2.3 - Td=2.5 2023-11-08 10:29:00
1 2019-11-20 09:00:00 HR (Humedad Relativa) es igual a 100% y Ts <> Td 2.5 - 1.6 2023-11-08 10:29:00
1 2019-11-20 10:00:00 Ts debe ser mayor o igual a Td Ts=1.6 - Td=2.7 2023-11-08 10:29:00
1 2019-11-20 10:00:00 HR (Humedad Relativa) es igual a 100% y Ts <> Td 1.6 - 2.7 2023-11-08 10:29:00
1 2019-11-20 11:00:00 Ts debe ser mayor o igual a Td Ts=2.7 - Td=8.6 2023-11-08 10:29:00
1 2019-11-20 11:00:00 HR (Humedad Relativa) es igual a 100% y Ts <> Td 2.7 - 8.6 2023-11-08 10:29:00
1 2019-11-20 12:00:00 Ts debe ser mayor o igual a Td Ts=8.6 - Td=9.5 2023-11-08 10:29:00
1 2019-11-20 12:00:00 HR (Humedad Relativa) es igual a 100% y Ts <> Td 8.6 - 9.5 2023-11-08 10:29:00
1 2019-11-21 10:00:00 Ts debe ser mayor o igual a Td Ts=4.6 - Td=6.9 2023-11-08 10:29:00
1 2019-11-22 13:00:00 Ts debe ser mayor o igual a Td Ts=10.3 - Td=10.9 2023-11-08 10:29:00
1 2019-11-23 08:00:00 Ts debe ser mayor o igual a Td Ts=9.3 - Td=10.4 2023-11-08 10:29:00
1 2019-11-23 09:00:00 Ts debe ser mayor o igual a Td Ts=10.5 - Td=11.6 2023-11-08 10:29:00
1 2019-11-24 11:00:00 Ts debe ser mayor o igual a Td Ts=11.9 - Td=12.1 2023-11-08 10:29:00
1 2019-11-24 12:00:00 Ts debe ser mayor o igual a Td Ts=12.6 - Td=13.8 2023-11-08 10:29:00
1 2019-11-25 12:00:00 Ts debe ser mayor o igual a Td Ts=8.5 - Td=9.3 2023-11-08 10:29:00
1 2019-11-25 13:00:00 Ts debe ser mayor o igual a Td Ts=9.9 - Td=10.9 2023-11-08 10:29:00
1 2019-11-25 19:00:00 Ts debe ser mayor o igual a Td Ts=9.5 - Td=10.0 2023-11-08 10:29:00
1 2019-11-26 08:00:00 Ts debe ser mayor o igual a Td Ts=6.6 - Td=6.8 2023-11-08 10:29:00
1 2019-11-26 10:00:00 Ts debe ser mayor o igual a Td Ts=6.8 - Td=7.4 2023-11-08 10:29:00
1 2019-11-26 11:00:00 Ts debe ser mayor o igual a Td Ts=7.4 - Td=8.7 2023-11-08 10:29:00
1 2019-11-26 11:00:00 HR (Humedad Relativa) es igual a 100% y Ts <> Td 7.4 - 8.7 2023-11-08 10:29:00
1 2019-11-26 12:00:00 Ts debe ser mayor o igual a Td Ts=9.0 - Td=9.9 2023-11-08 10:29:00
1 2019-11-27 03:00:00 Ts debe ser mayor o igual a Td Ts=6.6 - Td=6.8 2023-11-08 10:29:00
1 2019-11-27 04:00:00 Ts debe ser mayor o igual a Td Ts=7.1 - Td=7.2 2023-11-08 10:29:00
1 2019-11-27 08:00:00 Ts debe ser mayor o igual a Td Ts=6.0 - Td=6.9 2023-11-08 10:29:00
1 2019-11-27 09:00:00 Ts debe ser mayor o igual a Td Ts=6.9 - Td=7.1 2023-11-08 10:29:00
1 2019-11-27 10:00:00 Ts debe ser mayor o igual a Td Ts=7.1 - Td=7.3 2023-11-08 10:29:00
1 2019-11-27 11:00:00 Ts debe ser mayor o igual a Td Ts=7.3 - Td=9.7 2023-11-08 10:29:00
1 2019-11-27 12:00:00 Ts debe ser mayor o igual a Td Ts=9.9 - Td=11.0 2023-11-08 10:29:00
1 2019-11-28 06:00:00 Ts debe ser mayor o igual a Td Ts=4.4 - Td=5.4 2023-11-08 10:29:00
1 2019-11-28 07:00:00 Ts debe ser mayor o igual a Td Ts=5.5 - Td=6.4 2023-11-08 10:29:00
1 2019-11-28 08:00:00 Ts debe ser mayor o igual a Td Ts=6.5 - Td=7.0 2023-11-08 10:29:00
1 2019-11-28 10:00:00 Ts debe ser mayor o igual a Td Ts=7.0 - Td=8.1 2023-11-08 10:29:00
1 2019-11-28 11:00:00 Ts debe ser mayor o igual a Td Ts=8.2 - Td=9.5 2023-11-08 10:29:00
1 2019-11-28 12:00:00 Ts debe ser mayor o igual a Td Ts=9.7 - Td=11.0 2023-11-08 10:29:00
1 2019-11-29 04:00:00 Ts debe ser mayor o igual a Td Ts=8.7 - Td=8.8 2023-11-08 10:29:00
1 2019-11-29 08:00:00 Ts debe ser mayor o igual a Td Ts=6.8 - Td=7.0 2023-11-08 10:29:00
1 2019-11-29 09:00:00 HR (Humedad Relativa) es igual a 100% y Ts <> Td 6.9 - 6.0 2023-11-08 10:29:00
1 2019-11-29 10:00:00 Ts debe ser mayor o igual a Td Ts=6.0 - Td=7.1 2023-11-08 10:29:00
1 2019-11-29 10:00:00 HR (Humedad Relativa) es igual a 100% y Ts <> Td 6.0 - 7.1 2023-11-08 10:29:00
1 2019-11-29 11:00:00 Ts debe ser mayor o igual a Td Ts=7.0 - Td=9.4 2023-11-08 10:29:00
1 2019-11-29 11:00:00 HR (Humedad Relativa) es igual a 100% y Ts <> Td 7.0 - 9.4 2023-11-08 10:29:00
1 2019-11-29 12:00:00 Ts debe ser mayor o igual a Td Ts=9.4 - Td=11.3 2023-11-08 10:29:00
1 2019-11-29 12:00:00 HR (Humedad Relativa) es igual a 100% y Ts <> Td 9.4 - 11.3 2023-11-08 10:29:00
1 2019-11-29 13:00:00 Ts debe ser mayor o igual a Td Ts=11.4 - Td=12.4 2023-11-08 10:29:00
1 2019-11-30 10:00:00 Ts debe ser mayor o igual a Td Ts=9.2 - Td=9.4 2023-11-08 10:29:00
1 2019-11-30 11:00:00 Ts debe ser mayor o igual a Td Ts=9.6 - Td=10.4 2023-11-08 10:29:00
1 2019-11-30 12:00:00 Ts debe ser mayor o igual a Td Ts=10.5 - Td=11.2 2023-11-08 10:29:00
1 2019-12-01 11:00:00 Ts debe ser mayor o igual a Td Ts=5.4 - Td=10.7 2023-11-08 10:29:00
1 2019-12-02 11:00:00 Ts debe ser mayor o igual a Td Ts=9.2 - Td=11.0 2023-11-08 10:29:00
1 2019-12-09 09:00:00 Ts debe ser mayor o igual a Td Ts=6.4 - Td=6.7 2023-11-08 10:29:00
1 2019-12-09 10:00:00 Ts debe ser mayor o igual a Td Ts=6.7 - Td=8.2 2023-11-08 10:29:00
1 2019-12-09 11:00:00 Ts debe ser mayor o igual a Td Ts=8.3 - Td=11.9 2023-11-08 10:29:00
1 2019-12-09 12:00:00 Ts debe ser mayor o igual a Td Ts=11.9 - Td=12.4 2023-11-08 10:29:00
1 2019-12-09 12:00:00 HR (Humedad Relativa) es igual a 100% y Ts <> Td 11.9 - 12.4 2023-11-08 10:29:00
1 2019-12-10 10:00:00 Ts debe ser mayor o igual a Td Ts=6.8 - Td=7.8 2023-11-08 10:29:00
1 2019-12-10 11:00:00 Ts debe ser mayor o igual a Td Ts=7.9 - Td=11.8 2023-11-08 10:29:00
1 2019-12-10 12:00:00 Ts debe ser mayor o igual a Td Ts=12.3 - Td=13.4 2023-11-08 10:29:00
1 2019-12-11 04:00:00 Ts debe ser mayor o igual a Td Ts=10.3 - Td=10.4 2023-11-08 10:29:00
1 2019-12-11 06:00:00 Ts debe ser mayor o igual a Td Ts=10.7 - Td=11.5 2023-11-08 10:29:00
1 2019-12-12 10:00:00 Ts debe ser mayor o igual a Td Ts=0.6 - Td=1.5 2023-11-08 10:29:00
1 2019-12-12 11:00:00 Ts debe ser mayor o igual a Td Ts=1.7 - Td=6.4 2023-11-08 10:29:00
1 2019-12-12 12:00:00 Ts debe ser mayor o igual a Td Ts=6.7 - Td=10.7 2023-11-08 10:29:00
1 2019-12-13 10:00:00 Ts debe ser mayor o igual a Td Ts=10.0 - Td=10.5 2023-11-08 10:29:00
1 2019-12-13 11:00:00 Ts debe ser mayor o igual a Td Ts=10.9 - Td=11.9 2023-11-08 10:29:00
1 2019-12-14 03:00:00 Ts debe ser mayor o igual a Td Ts=10.1 - Td=10.3 2023-11-08 10:30:00
1 2019-12-14 05:00:00 Ts debe ser mayor o igual a Td Ts=8.6 - Td=9.3 2023-11-08 10:30:00
1 2019-12-14 06:00:00 Ts debe ser mayor o igual a Td Ts=9.5 - Td=10.4 2023-11-08 10:30:00
1 2019-12-14 11:00:00 Ts debe ser mayor o igual a Td Ts=5.4 - Td=10.0 2023-11-08 10:30:00
1 2019-12-14 12:00:00 Ts debe ser mayor o igual a Td Ts=10.1 - Td=10.7 2023-11-08 10:30:00
1 2019-12-15 10:00:00 Ts debe ser mayor o igual a Td Ts=2.8 - Td=3.7 2023-11-08 10:30:00
1 2019-12-15 11:00:00 Ts debe ser mayor o igual a Td Ts=3.8 - Td=8.2 2023-11-08 10:30:00
1 2019-12-15 12:00:00 Ts debe ser mayor o igual a Td Ts=8.4 - Td=11.9 2023-11-08 10:30:00
1 2019-12-16 10:00:00 Ts debe ser mayor o igual a Td Ts=2.5 - Td=3.4 2023-11-08 10:30:00
1 2019-12-16 11:00:00 Ts debe ser mayor o igual a Td Ts=3.5 - Td=9.2 2023-11-08 10:30:00
1 2019-12-16 12:00:00 Ts debe ser mayor o igual a Td Ts=9.4 - Td=12.0 2023-11-08 10:30:00
1 2019-12-17 06:00:00 Ts debe ser mayor o igual a Td Ts=4.5 - Td=4.8 2023-11-08 10:30:00
1 2019-12-17 10:00:00 Ts debe ser mayor o igual a Td Ts=2.4 - Td=3.5 2023-11-08 10:30:00
1 2019-12-17 11:00:00 Ts debe ser mayor o igual a Td Ts=3.5 - Td=9.2 2023-11-08 10:30:00
1 2019-12-17 12:00:00 Ts debe ser mayor o igual a Td Ts=9.4 - Td=12.0 2023-11-08 10:30:00
Errores del Nivel 621
Informe generado el 13-07-2024 04:37
Requerimiento: RE6001